Hauptseite
METAR-TAF:

METAR-TAF

Flughäfen :

Internationaler König-Abd-al-Aziz-Flughafen

Dschidda, Saudi-Arabien

Breite: 21-42N, Länge: 039-11E, Höhe: 15 m

Beobachtung

Neuester Wetterbericht von vor 1 Stunde und 7 Minuten, um 14:00 UTC
Wind 10 kt aus West/Nordwest
Temperatur 24°C
Luftfeuchtigkeit 24%
Luftdruck 1014 hPa
Sichtweite 10 km oder mehr
Leicht bewölkt in der Höhe von 4000 ft
Aufgelockert bewölkt in der Höhe von 10000 ft

METAR: OEJN 201400Z 30010KT 9999 FEW040 SCT100 24/02 Q1014 NOSIG

Zeit: 18:07 (15:07 UTC)

Prognose

Neuester Wetterbericht von vor 4 Stunden und 7 Minuten, um 11:00 UTC
Gültige Prognose vom 20 um 12 UTC bis 21 um 18 UTC
Wind 14 kt aus Nord/Nordwest
Sichtweite: 8000 m
Leicht bewölkt in der Höhe von 4000 ft
Übergehend zu
vom 20 um 18 UTC bis 20 um 20 UTC
Wind 8 kt aus Nord/Nordost

TAF: OEJN 201100Z 2012/2118 34014KT 8000 FEW040 BECMG 2018/2020 03008KT

Wetterbeobachtungen und Prognosen von mehr als 4000 Flughäfen (METAR und TAF Bericht).

Die verfügbaren Stationen werden durch gelbe und rote Markierungen auf der Karte dargestellt.

Führen Sie die Maus auf sie, um den Namen der Station zu sehen.

Darauf klicken, um die Beobachtung von Wetterbeobachtungen und Prognosen zu sehen.

Um die Karte zu ändern : klicken Sie auf den grünen Tasten mit einem schwarzen Kreuz Zum Vergrößern, auf den grünen Button mit einem Gedankenstrich zu verkleinern, oder auf die grünen Pfeile für benachbarte Karten.


METAR-TAF: